createdAt,value
2018-05-15T20:29:41.027Z,70.41
2018-05-15T20:32:08.762Z,70.18
2018-05-15T20:34:36.400Z,70.34
2018-05-15T20:37:04.249Z,70.93
2018-05-15T20:39:31.946Z,70.59
2018-05-15T20:41:59.670Z,69.88
2018-05-15T20:44:27.492Z,69.45
2018-05-15T20:46:55.105Z,69.40
2018-05-15T20:49:22.798Z,71.28
2018-05-15T20:51:50.657Z,71.96
2018-05-15T20:54:18.295Z,72.51
2018-05-15T20:56:47.877Z,72.85
2018-05-15T20:59:16.176Z,72.87
2018-05-15T21:01:43.770Z,72.79
2018-05-15T21:04:11.394Z,71.92
2018-05-15T21:06:39.085Z,72.25
2018-05-15T21:09:06.733Z,72.14
2018-05-15T21:11:34.371Z,72.27
2018-05-15T21:14:02.527Z,72.52
2018-05-15T21:16:30.117Z,72.92
2018-05-15T21:18:57.775Z,74.28
2018-05-15T21:21:25.929Z,74.00
2018-05-15T21:23:53.530Z,74.64
2018-05-15T21:26:21.153Z,74.80
2018-05-15T21:28:49.301Z,74.11
2018-05-15T21:31:16.873Z,73.87
2018-05-15T21:33:44.549Z,73.48
2018-05-15T21:36:12.238Z,72.89
2018-05-15T21:38:39.865Z,72.72
2018-05-15T21:41:07.500Z,73.39
2018-05-15T21:43:35.404Z,74.00
2018-05-15T21:46:03.062Z,74.73
2018-05-15T21:48:30.704Z,74.88
2018-05-15T21:50:58.389Z,74.21
2018-05-15T21:53:25.998Z,74.28
2018-05-15T21:55:53.641Z,74.42
2018-05-15T21:58:21.340Z,74.35
2018-05-15T22:00:48.962Z,74.79
2018-05-15T22:03:16.633Z,75.03
2018-05-15T22:05:44.623Z,74.54
2018-05-15T22:08:12.221Z,74.72
2018-05-15T22:10:39.827Z,75.13
2018-05-15T22:13:19.270Z,75.26
2018-05-15T22:15:58.671Z,75.20
2018-05-15T22:18:38.086Z,75.44
2018-05-15T22:21:17.289Z,74.95
2018-05-15T22:23:44.502Z,74.83
2018-05-15T22:26:12.095Z,75.12
2018-05-15T22:28:39.704Z,75.26
2018-05-15T22:31:07.565Z,75.67
2018-05-15T22:33:35.315Z,76.18
2018-05-15T22:36:02.909Z,75.95
2018-05-15T22:38:30.723Z,75.69
2018-05-15T22:40:58.461Z,75.20
2018-05-15T22:43:26.043Z,75.26
2018-05-15T22:45:53.926Z,75.33
2018-05-15T22:48:21.622Z,75.62
2018-05-15T22:50:49.256Z,75.88
2018-05-15T22:53:16.931Z,75.97
2018-05-15T22:55:44.577Z,75.96
2018-05-15T22:58:12.242Z,75.73
2018-05-15T23:00:40.076Z,75.66
2018-05-15T23:03:07.835Z,75.53
2018-05-15T23:05:35.405Z,74.64
2018-05-15T23:08:03.268Z,74.83
2018-05-15T23:10:30.948Z,75.23
2018-05-15T23:12:58.573Z,75.44
2018-05-15T23:15:26.287Z,74.97
2018-05-15T23:17:53.944Z,74.58
2018-05-15T23:20:21.598Z,74.39
2018-05-15T23:22:49.256Z,75.09
2018-05-15T23:25:16.898Z,74.58
2018-05-15T23:27:44.544Z,74.30
2018-05-15T23:30:12.744Z,74.08
2018-05-15T23:32:40.333Z,73.74
2018-05-15T23:35:07.939Z,73.59
2018-05-15T23:37:35.664Z,73.25
2018-05-15T23:40:03.264Z,73.26
2018-05-15T23:42:30.921Z,74.12
2018-05-15T23:44:58.618Z,73.80
2018-05-15T23:47:26.279Z,71.35
2018-05-15T23:49:53.899Z,71.32
2018-05-15T23:52:22.050Z,71.72
2018-05-15T23:54:49.672Z,71.71
2018-05-15T23:57:17.264Z,71.75
2018-05-15T23:59:45.008Z,71.95
